
<gpx xmlns="http://www.topografix.com/GPX/1/1" xmlns:gpxx="http://www.garmin.com/xmlschemas/GpxExtensions/v3" xmlns:xsi="http://www.w3.org/2001/XMLSchema-instance" version="1.1" creator="Adze - http://kobotsw.com/apps/adze" xsi:schemaLocation="http://www.topografix.com/GPX/1/1 http://www.topografix.com/GPX/1/1/gpx.xsd http://www.garmin.com/xmlschemas/GpxExtensions/v3 http://www.garmin.com/xmlschemas/GpxExtensionsv3.xsd">
    <metadata>
        <name>Untitled Document</name>
        <link href="http://www.garmin.com"></link>
        <time>2018-01-31T08:26:17.402Z</time>
    </metadata>
    <wpt lon="101.153820" lat="14.728730">
        <time>2017-02-23T01:26:14Z</time>
        <name>Baan Suan Rojjana</name>
        <sym>Lodging</sym>
        <extensions>
            <gpxx:WaypointExtension xmlns:gpxx="http://www.garmin.com/xmlschemas/GpxExtensions/v3">
                <gpxx:DisplayMode>SymbolAndName</gpxx:DisplayMode>
            </gpxx:WaypointExtension>
        </extensions>
    </wpt>
    <wpt lon="101.185801" lat="14.720990">
        <name>Water stop</name>
    </wpt>
    <trk>
        <name>Saturday</name>
        <extensions>
            <gpxx:TrackExtension xmlns:gpxx="http://www.garmin.com/xmlschemas/GpxExtensions/v3">
                <gpxx:DisplayColor>Red</gpxx:DisplayColor>
            </gpxx:TrackExtension>
        </extensions>
        <trkseg>
            <trkpt lon="101.153908" lat="14.728633">
                <ele>327.799988</ele>
                <time>2017-02-04T01:20:29Z</time>
            </trkpt>
            <trkpt lon="101.156998" lat="14.728446">
                <ele>334.799988</ele>
                <time>2017-02-04T01:21:39Z</time>
            </trkpt>
            <trkpt lon="101.157099" lat="14.729194">
                <ele>330.400024</ele>
                <time>2017-02-04T01:21:54Z</time>
            </trkpt>
            <trkpt lon="101.157182" lat="14.730186">
                <ele>328.599976</ele>
                <time>2017-02-04T01:22:09Z</time>
            </trkpt>
            <trkpt lon="101.158982" lat="14.730072">
                <ele>337.200012</ele>
                <time>2017-02-04T01:22:56Z</time>
            </trkpt>
            <trkpt lon="101.161598" lat="14.730727">
                <ele>342.599976</ele>
                <time>2017-02-04T01:24:16Z</time>
            </trkpt>
            <trkpt lon="101.162387" lat="14.731274">
                <ele>347.400024</ele>
                <time>2017-02-04T01:24:53Z</time>
            </trkpt>
            <trkpt lon="101.162623" lat="14.731567">
                <ele>353.400024</ele>
                <time>2017-02-04T01:25:18Z</time>
            </trkpt>
            <trkpt lon="101.162312" lat="14.732731">
                <ele>349.599976</ele>
                <time>2017-02-04T01:25:59Z</time>
            </trkpt>
            <trkpt lon="101.163354" lat="14.732882">
                <ele>352.400024</ele>
                <time>2017-02-04T01:26:26Z</time>
            </trkpt>
            <trkpt lon="101.164053" lat="14.732671">
                <ele>354.000000</ele>
                <time>2017-02-04T01:26:41Z</time>
            </trkpt>
            <trkpt lon="101.164562" lat="14.732788">
                <ele>348.400024</ele>
                <time>2017-02-04T01:26:49Z</time>
            </trkpt>
            <trkpt lon="101.165535" lat="14.733040">
                <ele>343.799988</ele>
                <time>2017-02-04T01:27:02Z</time>
            </trkpt>
            <trkpt lon="101.165824" lat="14.734383">
                <ele>341.400024</ele>
                <time>2017-02-04T01:27:25Z</time>
            </trkpt>
            <trkpt lon="101.165872" lat="14.734483">
                <ele>341.000000</ele>
                <time>2017-02-04T01:27:27Z</time>
            </trkpt>
            <trkpt lon="101.166990" lat="14.734744">
                <ele>331.400024</ele>
                <time>2017-02-04T01:27:45Z</time>
            </trkpt>
            <trkpt lon="101.167550" lat="14.735641">
                <ele>326.200012</ele>
                <time>2017-02-04T01:28:04Z</time>
            </trkpt>
            <trkpt lon="101.167862" lat="14.735862">
                <ele>324.000000</ele>
                <time>2017-02-04T01:28:17Z</time>
            </trkpt>
            <trkpt lon="101.167218" lat="14.736856">
                <ele>327.799988</ele>
                <time>2017-02-04T01:30:48Z</time>
            </trkpt>
            <trkpt lon="101.165847" lat="14.736949">
                <ele>332.799988</ele>
                <time>2017-02-04T01:32:04Z</time>
            </trkpt>
            <trkpt lon="101.165673" lat="14.736991">
                <ele>333.400024</ele>
                <time>2017-02-04T01:32:11Z</time>
            </trkpt>
            <trkpt lon="101.164679" lat="14.737311">
                <ele>334.799988</ele>
                <time>2017-02-04T01:33:26Z</time>
            </trkpt>
            <trkpt lon="101.164385" lat="14.737787">
                <ele>336.000000</ele>
                <time>2017-02-04T01:34:15Z</time>
            </trkpt>
            <trkpt lon="101.164100" lat="14.737475">
                <ele>334.200012</ele>
                <time>2017-02-04T01:34:30Z</time>
            </trkpt>
            <trkpt lon="101.163924" lat="14.737176">
                <ele>331.799988</ele>
                <time>2017-02-04T01:34:36Z</time>
            </trkpt>
            <trkpt lon="101.162714" lat="14.734782">
                <ele>339.599976</ele>
                <time>2017-02-04T01:37:16Z</time>
            </trkpt>
            <trkpt lon="101.164426" lat="14.738202">
                <ele>338.200012</ele>
                <time>2017-02-04T01:41:28Z</time>
            </trkpt>
            <trkpt lon="101.164705" lat="14.738431">
                <ele>336.599976</ele>
                <time>2017-02-04T01:41:41Z</time>
            </trkpt>
            <trkpt lon="101.164057" lat="14.739368">
                <ele>341.000000</ele>
                <time>2017-02-04T01:42:24Z</time>
            </trkpt>
            <trkpt lon="101.165171" lat="14.740282">
                <ele>337.000000</ele>
                <time>2017-02-04T01:48:28Z</time>
            </trkpt>
            <trkpt lon="101.165369" lat="14.740282">
                <ele>335.599976</ele>
                <time>2017-02-04T01:48:31Z</time>
            </trkpt>
            <trkpt lon="101.166448" lat="14.740421">
                <ele>327.200012</ele>
                <time>2017-02-04T01:48:50Z</time>
            </trkpt>
            <trkpt lon="101.167624" lat="14.741142">
                <ele>314.400024</ele>
                <time>2017-02-04T01:49:51Z</time>
            </trkpt>
            <trkpt lon="101.168106" lat="14.741184">
                <ele>311.400024</ele>
                <time>2017-02-04T01:50:11Z</time>
            </trkpt>
            <trkpt lon="101.168184" lat="14.741474">
                <ele>309.799988</ele>
                <time>2017-02-04T01:51:03Z</time>
            </trkpt>
            <trkpt lon="101.166997" lat="14.742210">
                <ele>319.000000</ele>
                <time>2017-02-04T01:53:40Z</time>
            </trkpt>
            <trkpt lon="101.165401" lat="14.742555">
                <ele>336.799988</ele>
                <time>2017-02-04T01:55:50Z</time>
            </trkpt>
            <trkpt lon="101.164860" lat="14.743134">
                <ele>344.400024</ele>
                <time>2017-02-04T01:56:32Z</time>
            </trkpt>
            <trkpt lon="101.164682" lat="14.744392">
                <ele>351.000000</ele>
                <time>2017-02-04T01:58:33Z</time>
            </trkpt>
            <trkpt lon="101.164227" lat="14.744916">
                <ele>354.400024</ele>
                <time>2017-02-04T01:59:09Z</time>
            </trkpt>
            <trkpt lon="101.164183" lat="14.744978">
                <ele>354.599976</ele>
                <time>2017-02-04T01:59:25Z</time>
            </trkpt>
            <trkpt lon="101.164617" lat="14.746459">
                <ele>341.799988</ele>
                <time>2017-02-04T02:00:15Z</time>
            </trkpt>
            <trkpt lon="101.164493" lat="14.746882">
                <ele>334.000000</ele>
                <time>2017-02-04T02:00:43Z</time>
            </trkpt>
            <trkpt lon="101.164041" lat="14.747118">
                <ele>331.799988</ele>
                <time>2017-02-04T02:00:54Z</time>
            </trkpt>
            <trkpt lon="101.163426" lat="14.747399">
                <ele>329.599976</ele>
                <time>2017-02-04T02:01:39Z</time>
            </trkpt>
            <trkpt lon="101.162375" lat="14.746727">
                <ele>331.400024</ele>
                <time>2017-02-04T02:02:16Z</time>
            </trkpt>
            <trkpt lon="101.162262" lat="14.746830">
                <ele>329.599976</ele>
                <time>2017-02-04T02:02:19Z</time>
            </trkpt>
            <trkpt lon="101.161961" lat="14.747165">
                <ele>326.799988</ele>
                <time>2017-02-04T02:02:26Z</time>
            </trkpt>
            <trkpt lon="101.161177" lat="14.748008">
                <ele>323.000000</ele>
                <time>2017-02-04T02:02:41Z</time>
            </trkpt>
            <trkpt lon="101.160740" lat="14.748301">
                <ele>319.200012</ele>
                <time>2017-02-04T02:02:47Z</time>
            </trkpt>
            <trkpt lon="101.160236" lat="14.748692">
                <ele>315.799988</ele>
                <time>2017-02-04T02:02:54Z</time>
            </trkpt>
            <trkpt lon="101.160060" lat="14.750026">
                <ele>310.000000</ele>
                <time>2017-02-04T02:03:09Z</time>
            </trkpt>
            <trkpt lon="101.160448" lat="14.752822">
                <ele>302.200012</ele>
                <time>2017-02-04T02:03:42Z</time>
            </trkpt>
            <trkpt lon="101.160975" lat="14.753591">
                <ele>297.000000</ele>
                <time>2017-02-04T02:03:54Z</time>
            </trkpt>
            <trkpt lon="101.159945" lat="14.754200">
                <ele>296.799988</ele>
                <time>2017-02-04T02:04:15Z</time>
            </trkpt>
            <trkpt lon="101.159404" lat="14.754209">
                <ele>295.200012</ele>
                <time>2017-02-04T02:04:23Z</time>
            </trkpt>
            <trkpt lon="101.159184" lat="14.754773">
                <ele>288.400024</ele>
                <time>2017-02-04T02:04:30Z</time>
            </trkpt>
            <trkpt lon="101.157455" lat="14.759502">
                <ele>243.200012</ele>
                <time>2017-02-04T02:07:30Z</time>
            </trkpt>
            <trkpt lon="101.157751" lat="14.760325">
                <ele>235.200012</ele>
                <time>2017-02-04T02:07:48Z</time>
            </trkpt>
            <trkpt lon="101.157825" lat="14.762501">
                <ele>219.000000</ele>
                <time>2017-02-04T02:08:52Z</time>
            </trkpt>
            <trkpt lon="101.157437" lat="14.765232">
                <ele>195.000000</ele>
                <time>2017-02-04T02:09:45Z</time>
            </trkpt>
            <trkpt lon="101.157047" lat="14.766028">
                <ele>188.799988</ele>
                <time>2017-02-04T02:10:01Z</time>
            </trkpt>
            <trkpt lon="101.155992" lat="14.766768">
                <ele>176.599976</ele>
                <time>2017-02-04T02:10:26Z</time>
            </trkpt>
            <trkpt lon="101.155386" lat="14.767523">
                <ele>170.799988</ele>
                <time>2017-02-04T02:10:43Z</time>
            </trkpt>
            <trkpt lon="101.155076" lat="14.767973">
                <ele>166.799988</ele>
                <time>2017-02-04T02:10:58Z</time>
            </trkpt>
            <trkpt lon="101.155192" lat="14.769719">
                <ele>166.799988</ele>
                <time>2017-02-04T02:14:01Z</time>
            </trkpt>
            <trkpt lon="101.154956" lat="14.770261">
                <ele>164.599976</ele>
                <time>2017-02-04T02:14:15Z</time>
            </trkpt>
            <trkpt lon="101.154374" lat="14.771077">
                <ele>153.599976</ele>
                <time>2017-02-04T02:14:34Z</time>
            </trkpt>
            <trkpt lon="101.154139" lat="14.771955">
                <ele>146.400024</ele>
                <time>2017-02-04T02:14:55Z</time>
            </trkpt>
            <trkpt lon="101.153031" lat="14.773033">
                <ele>151.000000</ele>
                <time>2017-02-04T02:16:13Z</time>
            </trkpt>
            <trkpt lon="101.152747" lat="14.775166">
                <ele>131.599976</ele>
                <time>2017-02-04T02:17:18Z</time>
            </trkpt>
            <trkpt lon="101.153537" lat="14.777137">
                <ele>136.599976</ele>
                <time>2017-02-04T02:19:05Z</time>
            </trkpt>
            <trkpt lon="101.153447" lat="14.778112">
                <ele>129.000000</ele>
                <time>2017-02-04T02:19:58Z</time>
            </trkpt>
            <trkpt lon="101.153448" lat="14.779091">
                <ele>122.400024</ele>
                <time>2017-02-04T02:20:24Z</time>
            </trkpt>
            <trkpt lon="101.153853" lat="14.780669">
                <ele>131.200012</ele>
                <time>2017-02-04T02:28:33Z</time>
            </trkpt>
            <trkpt lon="101.153942" lat="14.780847">
                <ele>127.000000</ele>
                <time>2017-02-04T02:28:38Z</time>
            </trkpt>
            <trkpt lon="101.153743" lat="14.781519">
                <ele>120.200012</ele>
                <time>2017-02-04T02:28:50Z</time>
            </trkpt>
            <trkpt lon="101.152946" lat="14.783101">
                <ele>112.400024</ele>
                <time>2017-02-04T02:29:27Z</time>
            </trkpt>
            <trkpt lon="101.153129" lat="14.783579">
                <ele>111.599976</ele>
                <time>2017-02-04T02:29:44Z</time>
            </trkpt>
            <trkpt lon="101.152944" lat="14.784228">
                <ele>117.000000</ele>
                <time>2017-02-04T02:30:31Z</time>
            </trkpt>
            <trkpt lon="101.152286" lat="14.787798">
                <ele>98.799988</ele>
                <time>2017-02-04T02:32:47Z</time>
            </trkpt>
            <trkpt lon="101.152290" lat="14.787815">
                <ele>98.400024</ele>
                <time>2017-02-04T02:32:48Z</time>
            </trkpt>
            <trkpt lon="101.152798" lat="14.788016">
                <ele>94.000000</ele>
                <time>2017-02-04T02:33:58Z</time>
            </trkpt>
            <trkpt lon="101.155218" lat="14.786701">
                <ele>110.000000</ele>
                <time>2017-02-04T02:53:50Z</time>
            </trkpt>
            <trkpt lon="101.155961" lat="14.786712">
                <ele>107.799988</ele>
                <time>2017-02-04T02:54:11Z</time>
            </trkpt>
            <trkpt lon="101.156820" lat="14.786802">
                <ele>106.400024</ele>
                <time>2017-02-04T02:54:31Z</time>
            </trkpt>
            <trkpt lon="101.157191" lat="14.787251">
                <ele>100.799988</ele>
                <time>2017-02-04T02:54:47Z</time>
            </trkpt>
            <trkpt lon="101.158638" lat="14.786688">
                <ele>106.000000</ele>
                <time>2017-02-04T02:55:47Z</time>
            </trkpt>
            <trkpt lon="101.159587" lat="14.785411">
                <ele>113.400024</ele>
                <time>2017-02-04T02:56:49Z</time>
            </trkpt>
            <trkpt lon="101.160655" lat="14.784572">
                <ele>120.000000</ele>
                <time>2017-02-04T02:57:46Z</time>
            </trkpt>
            <trkpt lon="101.160733" lat="14.784407">
                <ele>118.799988</ele>
                <time>2017-02-04T02:57:55Z</time>
            </trkpt>
            <trkpt lon="101.161533" lat="14.782682">
                <ele>120.799988</ele>
                <time>2017-02-04T02:59:03Z</time>
            </trkpt>
            <trkpt lon="101.162576" lat="14.782010">
                <ele>123.799988</ele>
                <time>2017-02-04T02:59:57Z</time>
            </trkpt>
            <trkpt lon="101.163176" lat="14.781915">
                <ele>128.400024</ele>
                <time>2017-02-04T03:00:49Z</time>
            </trkpt>
            <trkpt lon="101.164342" lat="14.779031">
                <ele>141.599976</ele>
                <time>2017-02-04T03:06:37Z</time>
            </trkpt>
            <trkpt lon="101.166945" lat="14.777255">
                <ele>145.599976</ele>
                <time>2017-02-04T03:08:30Z</time>
            </trkpt>
            <trkpt lon="101.168000" lat="14.774969">
                <ele>155.599976</ele>
                <time>2017-02-04T03:10:59Z</time>
            </trkpt>
            <trkpt lon="101.168020" lat="14.774313">
                <ele>153.799988</ele>
                <time>2017-02-04T03:11:18Z</time>
            </trkpt>
            <trkpt lon="101.169719" lat="14.771857">
                <ele>170.400024</ele>
                <time>2017-02-04T03:14:44Z</time>
            </trkpt>
            <trkpt lon="101.170232" lat="14.770027">
                <ele>211.599976</ele>
                <time>2017-02-04T03:23:22Z</time>
            </trkpt>
            <trkpt lon="101.171483" lat="14.768957">
                <ele>215.400024</ele>
                <time>2017-02-04T03:24:29Z</time>
            </trkpt>
            <trkpt lon="101.172245" lat="14.768627">
                <ele>216.799988</ele>
                <time>2017-02-04T03:25:04Z</time>
            </trkpt>
            <trkpt lon="101.172677" lat="14.766903">
                <ele>229.000000</ele>
                <time>2017-02-04T03:27:34Z</time>
            </trkpt>
            <trkpt lon="101.174196" lat="14.765842">
                <ele>236.200012</ele>
                <time>2017-02-04T03:29:12Z</time>
            </trkpt>
            <trkpt lon="101.174606" lat="14.765219">
                <ele>243.599976</ele>
                <time>2017-02-04T03:30:08Z</time>
            </trkpt>
            <trkpt lon="101.174963" lat="14.764884">
                <ele>249.599976</ele>
                <time>2017-02-04T03:36:17Z</time>
            </trkpt>
            <trkpt lon="101.173561" lat="14.762361">
                <ele>271.799988</ele>
                <time>2017-02-04T03:40:28Z</time>
            </trkpt>
            <trkpt lon="101.173974" lat="14.761559">
                <ele>278.599976</ele>
                <time>2017-02-04T03:41:21Z</time>
            </trkpt>
            <trkpt lon="101.173780" lat="14.761198">
                <ele>280.799988</ele>
                <time>2017-02-04T03:41:42Z</time>
            </trkpt>
            <trkpt lon="101.173497" lat="14.760146">
                <ele>286.400024</ele>
                <time>2017-02-04T03:42:36Z</time>
            </trkpt>
            <trkpt lon="101.174309" lat="14.759160">
                <ele>297.000000</ele>
                <time>2017-02-04T03:43:52Z</time>
            </trkpt>
            <trkpt lon="101.174132" lat="14.758154">
                <ele>300.400024</ele>
                <time>2017-02-04T03:44:39Z</time>
            </trkpt>
            <trkpt lon="101.173507" lat="14.757445">
                <ele>304.400024</ele>
                <time>2017-02-04T03:45:26Z</time>
            </trkpt>
            <trkpt lon="101.172909" lat="14.756343">
                <ele>301.599976</ele>
                <time>2017-02-04T03:45:54Z</time>
            </trkpt>
            <trkpt lon="101.171909" lat="14.754545">
                <ele>307.400024</ele>
                <time>2017-02-04T03:46:52Z</time>
            </trkpt>
            <trkpt lon="101.171177" lat="14.754557">
                <ele>310.000000</ele>
                <time>2017-02-04T03:50:22Z</time>
            </trkpt>
            <trkpt lon="101.170557" lat="14.754229">
                <ele>313.200012</ele>
                <time>2017-02-04T03:50:43Z</time>
            </trkpt>
            <trkpt lon="101.169478" lat="14.753495">
                <ele>313.599976</ele>
                <time>2017-02-04T03:51:16Z</time>
            </trkpt>
            <trkpt lon="101.169232" lat="14.752341">
                <ele>322.000000</ele>
                <time>2017-02-04T03:52:09Z</time>
            </trkpt>
            <trkpt lon="101.168960" lat="14.751514">
                <ele>320.799988</ele>
                <time>2017-02-04T03:52:41Z</time>
            </trkpt>
            <trkpt lon="101.168382" lat="14.750953">
                <ele>319.200012</ele>
                <time>2017-02-04T03:53:09Z</time>
            </trkpt>
            <trkpt lon="101.168766" lat="14.750989">
                <ele>317.400024</ele>
                <time>2017-02-04T03:53:20Z</time>
            </trkpt>
            <trkpt lon="101.169255" lat="14.751606">
                <ele>319.200012</ele>
                <time>2017-02-04T03:53:42Z</time>
            </trkpt>
            <trkpt lon="101.170430" lat="14.751448">
                <ele>317.200012</ele>
                <time>2017-02-04T03:54:10Z</time>
            </trkpt>
            <trkpt lon="101.169048" lat="14.751633">
                <ele>321.000000</ele>
                <time>2017-02-04T03:55:47Z</time>
            </trkpt>
            <trkpt lon="101.168539" lat="14.751135">
                <ele>319.599976</ele>
                <time>2017-02-04T03:56:07Z</time>
            </trkpt>
            <trkpt lon="101.167939" lat="14.750571">
                <ele>317.400024</ele>
                <time>2017-02-04T03:56:23Z</time>
            </trkpt>
            <trkpt lon="101.166823" lat="14.749413">
                <ele>315.799988</ele>
                <time>2017-02-04T03:56:51Z</time>
            </trkpt>
            <trkpt lon="101.164848" lat="14.748217">
                <ele>324.000000</ele>
                <time>2017-02-04T03:58:01Z</time>
            </trkpt>
            <trkpt lon="101.165083" lat="14.748019">
                <ele>325.400024</ele>
                <time>2017-02-04T03:58:15Z</time>
            </trkpt>
            <trkpt lon="101.165658" lat="14.747569">
                <ele>323.200012</ele>
                <time>2017-02-04T03:58:33Z</time>
            </trkpt>
            <trkpt lon="101.166327" lat="14.747481">
                <ele>318.200012</ele>
                <time>2017-02-04T03:58:43Z</time>
            </trkpt>
            <trkpt lon="101.166846" lat="14.747231">
                <ele>315.799988</ele>
                <time>2017-02-04T03:58:50Z</time>
            </trkpt>
            <trkpt lon="101.167217" lat="14.746623">
                <ele>317.200012</ele>
                <time>2017-02-04T03:59:00Z</time>
            </trkpt>
            <trkpt lon="101.167424" lat="14.744764">
                <ele>321.799988</ele>
                <time>2017-02-04T03:59:35Z</time>
            </trkpt>
            <trkpt lon="101.167633" lat="14.744536">
                <ele>320.400024</ele>
                <time>2017-02-04T03:59:42Z</time>
            </trkpt>
            <trkpt lon="101.168157" lat="14.744434">
                <ele>315.000000</ele>
                <time>2017-02-04T03:59:48Z</time>
            </trkpt>
            <trkpt lon="101.169975" lat="14.744156">
                <ele>300.000000</ele>
                <time>2017-02-04T04:00:13Z</time>
            </trkpt>
            <trkpt lon="101.170820" lat="14.744569">
                <ele>293.400024</ele>
                <time>2017-02-04T04:00:28Z</time>
            </trkpt>
            <trkpt lon="101.170099" lat="14.744207">
                <ele>299.000000</ele>
                <time>2017-02-04T04:01:41Z</time>
            </trkpt>
            <trkpt lon="101.170194" lat="14.744062">
                <ele>297.400024</ele>
                <time>2017-02-04T04:01:51Z</time>
            </trkpt>
            <trkpt lon="101.171537" lat="14.742696">
                <ele>298.599976</ele>
                <time>2017-02-04T04:02:57Z</time>
            </trkpt>
            <trkpt lon="101.172353" lat="14.742161">
                <ele>291.000000</ele>
                <time>2017-02-04T04:03:17Z</time>
            </trkpt>
            <trkpt lon="101.172696" lat="14.740738">
                <ele>306.200012</ele>
                <time>2017-02-04T04:05:35Z</time>
            </trkpt>
            <trkpt lon="101.173247" lat="14.739384">
                <ele>307.000000</ele>
                <time>2017-02-04T04:06:25Z</time>
            </trkpt>
            <trkpt lon="101.173493" lat="14.737934">
                <ele>311.599976</ele>
                <time>2017-02-04T04:08:21Z</time>
            </trkpt>
            <trkpt lon="101.172744" lat="14.737102">
                <ele>315.400024</ele>
                <time>2017-02-04T04:09:20Z</time>
            </trkpt>
            <trkpt lon="101.173055" lat="14.736884">
                <ele>318.799988</ele>
                <time>2017-02-04T04:09:48Z</time>
            </trkpt>
            <trkpt lon="101.173235" lat="14.736884">
                <ele>318.799988</ele>
                <time>2017-02-04T04:09:55Z</time>
            </trkpt>
            <trkpt lon="101.174085" lat="14.736655">
                <ele>315.200012</ele>
                <time>2017-02-04T04:10:18Z</time>
            </trkpt>
            <trkpt lon="101.174264" lat="14.735925">
                <ele>308.599976</ele>
                <time>2017-02-04T04:10:41Z</time>
            </trkpt>
            <trkpt lon="101.174567" lat="14.735847">
                <ele>307.400024</ele>
                <time>2017-02-04T04:10:47Z</time>
            </trkpt>
            <trkpt lon="101.175065" lat="14.735694">
                <ele>302.599976</ele>
                <time>2017-02-04T04:10:56Z</time>
            </trkpt>
            <trkpt lon="101.176343" lat="14.734800">
                <ele>289.400024</ele>
                <time>2017-02-04T04:12:21Z</time>
            </trkpt>
            <trkpt lon="101.176823" lat="14.734256">
                <ele>277.799988</ele>
                <time>2017-02-04T04:13:02Z</time>
            </trkpt>
            <trkpt lon="101.177631" lat="14.734650">
                <ele>281.200012</ele>
                <time>2017-02-04T04:13:32Z</time>
            </trkpt>
            <trkpt lon="101.178430" lat="14.735353">
                <ele>270.200012</ele>
                <time>2017-02-04T04:13:57Z</time>
            </trkpt>
            <trkpt lon="101.179525" lat="14.734639">
                <ele>265.599976</ele>
                <time>2017-02-04T04:14:38Z</time>
            </trkpt>
            <trkpt lon="101.180608" lat="14.733828">
                <ele>257.599976</ele>
                <time>2017-02-04T04:15:05Z</time>
            </trkpt>
            <trkpt lon="101.180900" lat="14.733797">
                <ele>253.599976</ele>
                <time>2017-02-04T04:15:09Z</time>
            </trkpt>
            <trkpt lon="101.181853" lat="14.733323">
                <ele>246.200012</ele>
                <time>2017-02-04T04:15:21Z</time>
            </trkpt>
            <trkpt lon="101.182218" lat="14.732788">
                <ele>248.000000</ele>
                <time>2017-02-04T04:15:31Z</time>
            </trkpt>
            <trkpt lon="101.182224" lat="14.731882">
                <ele>242.599976</ele>
                <time>2017-02-04T04:15:46Z</time>
            </trkpt>
            <trkpt lon="101.181840" lat="14.731343">
                <ele>237.200012</ele>
                <time>2017-02-04T04:15:55Z</time>
            </trkpt>
            <trkpt lon="101.181897" lat="14.730974">
                <ele>237.400024</ele>
                <time>2017-02-04T04:16:00Z</time>
            </trkpt>
            <trkpt lon="101.182215" lat="14.730264">
                <ele>234.000000</ele>
                <time>2017-02-04T04:16:11Z</time>
            </trkpt>
            <trkpt lon="101.182571" lat="14.730091">
                <ele>233.400024</ele>
                <time>2017-02-04T04:16:17Z</time>
            </trkpt>
            <trkpt lon="101.183209" lat="14.730317">
                <ele>223.200012</ele>
                <time>2017-02-04T04:16:27Z</time>
            </trkpt>
            <trkpt lon="101.183646" lat="14.729859">
                <ele>223.599976</ele>
                <time>2017-02-04T04:16:37Z</time>
            </trkpt>
            <trkpt lon="101.184075" lat="14.728438">
                <ele>192.599976</ele>
                <time>2017-02-04T04:17:03Z</time>
            </trkpt>
            <trkpt lon="101.184538" lat="14.727508">
                <ele>183.000000</ele>
                <time>2017-02-04T04:17:12Z</time>
            </trkpt>
            <trkpt lon="101.184549" lat="14.726380">
                <ele>176.599976</ele>
                <time>2017-02-04T04:17:23Z</time>
            </trkpt>
            <trkpt lon="101.183881" lat="14.724277">
                <ele>173.599976</ele>
                <time>2017-02-04T04:17:55Z</time>
            </trkpt>
            <trkpt lon="101.184005" lat="14.723857">
                <ele>175.400024</ele>
                <time>2017-02-04T04:18:17Z</time>
            </trkpt>
            <trkpt lon="101.184313" lat="14.723701">
                <ele>173.599976</ele>
                <time>2017-02-04T04:19:26Z</time>
            </trkpt>
            <trkpt lon="101.184121" lat="14.722863">
                <ele>176.000000</ele>
                <time>2017-02-04T04:19:56Z</time>
            </trkpt>
            <trkpt lon="101.184085" lat="14.722745">
                <ele>173.200012</ele>
                <time>2017-02-04T04:20:00Z</time>
            </trkpt>
            <trkpt lon="101.184589" lat="14.722450">
                <ele>167.000000</ele>
                <time>2017-02-04T04:20:12Z</time>
            </trkpt>
            <trkpt lon="101.184958" lat="14.721625">
                <ele>166.599976</ele>
                <time>2017-02-04T04:20:33Z</time>
            </trkpt>
            <trkpt lon="101.185786" lat="14.721002">
                <ele>169.400024</ele>
                <time>2017-02-04T04:31:10Z</time>
            </trkpt>
            <trkpt lon="101.185532" lat="14.720617">
                <ele>171.599976</ele>
                <time>2017-02-04T04:31:29Z</time>
            </trkpt>
            <trkpt lon="101.185688" lat="14.720330">
                <ele>172.799988</ele>
                <time>2017-02-04T04:31:41Z</time>
            </trkpt>
            <trkpt lon="101.186640" lat="14.718354">
                <ele>178.799988</ele>
                <time>2017-02-04T04:33:41Z</time>
            </trkpt>
            <trkpt lon="101.186924" lat="14.715868">
                <ele>180.200012</ele>
                <time>2017-02-04T04:34:39Z</time>
            </trkpt>
            <trkpt lon="101.187216" lat="14.714657">
                <ele>180.000000</ele>
                <time>2017-02-04T04:35:07Z</time>
            </trkpt>
            <trkpt lon="101.187099" lat="14.713628">
                <ele>182.000000</ele>
                <time>2017-02-04T04:35:32Z</time>
            </trkpt>
            <trkpt lon="101.185144" lat="14.710059">
                <ele>180.599976</ele>
                <time>2017-02-04T04:36:51Z</time>
            </trkpt>
            <trkpt lon="101.184673" lat="14.709928">
                <ele>180.400024</ele>
                <time>2017-02-04T04:37:02Z</time>
            </trkpt>
            <trkpt lon="101.182992" lat="14.710402">
                <ele>183.400024</ele>
                <time>2017-02-04T04:37:43Z</time>
            </trkpt>
            <trkpt lon="101.182172" lat="14.710603">
                <ele>183.400024</ele>
                <time>2017-02-04T04:38:06Z</time>
            </trkpt>
            <trkpt lon="101.181746" lat="14.709238">
                <ele>198.000000</ele>
                <time>2017-02-04T04:39:57Z</time>
            </trkpt>
            <trkpt lon="101.180735" lat="14.708917">
                <ele>215.000000</ele>
                <time>2017-02-04T04:43:29Z</time>
            </trkpt>
            <trkpt lon="101.180681" lat="14.708886">
                <ele>215.799988</ele>
                <time>2017-02-04T04:43:36Z</time>
            </trkpt>
            <trkpt lon="101.180564" lat="14.708865">
                <ele>216.400024</ele>
                <time>2017-02-04T04:43:46Z</time>
            </trkpt>
            <trkpt lon="101.180244" lat="14.708841">
                <ele>217.400024</ele>
                <time>2017-02-04T04:44:10Z</time>
            </trkpt>
            <trkpt lon="101.179614" lat="14.708286">
                <ele>216.400024</ele>
                <time>2017-02-04T04:44:39Z</time>
            </trkpt>
            <trkpt lon="101.179522" lat="14.706978">
                <ele>214.400024</ele>
                <time>2017-02-04T04:45:15Z</time>
            </trkpt>
            <trkpt lon="101.179685" lat="14.707499">
                <ele>214.599976</ele>
                <time>2017-02-04T04:46:07Z</time>
            </trkpt>
            <trkpt lon="101.179377" lat="14.707614">
                <ele>215.599976</ele>
                <time>2017-02-04T04:46:16Z</time>
            </trkpt>
            <trkpt lon="101.178075" lat="14.707417">
                <ele>214.799988</ele>
                <time>2017-02-04T04:46:45Z</time>
            </trkpt>
            <trkpt lon="101.177998" lat="14.707376">
                <ele>214.599976</ele>
                <time>2017-02-04T04:46:47Z</time>
            </trkpt>
            <trkpt lon="101.177853" lat="14.706591">
                <ele>213.799988</ele>
                <time>2017-02-04T04:47:08Z</time>
            </trkpt>
            <trkpt lon="101.178436" lat="14.706461">
                <ele>213.799988</ele>
                <time>2017-02-04T04:47:22Z</time>
            </trkpt>
            <trkpt lon="101.178799" lat="14.706163">
                <ele>213.799988</ele>
                <time>2017-02-04T04:47:36Z</time>
            </trkpt>
            <trkpt lon="101.178971" lat="14.706023">
                <ele>213.599976</ele>
                <time>2017-02-04T04:47:45Z</time>
            </trkpt>
            <trkpt lon="101.178150" lat="14.706548">
                <ele>214.200012</ele>
                <time>2017-02-04T04:48:23Z</time>
            </trkpt>
            <trkpt lon="101.178263" lat="14.706671">
                <ele>212.200012</ele>
                <time>2017-02-04T04:48:29Z</time>
            </trkpt>
            <trkpt lon="101.181011" lat="14.706381">
                <ele>206.200012</ele>
                <time>2017-02-04T04:49:23Z</time>
            </trkpt>
            <trkpt lon="101.181674" lat="14.706515">
                <ele>201.000000</ele>
                <time>2017-02-04T04:49:34Z</time>
            </trkpt>
            <trkpt lon="101.182337" lat="14.706592">
                <ele>197.000000</ele>
                <time>2017-02-04T04:49:42Z</time>
            </trkpt>
            <trkpt lon="101.184467" lat="14.705485">
                <ele>200.000000</ele>
                <time>2017-02-04T04:51:35Z</time>
            </trkpt>
            <trkpt lon="101.184501" lat="14.705397">
                <ele>199.799988</ele>
                <time>2017-02-04T04:51:39Z</time>
            </trkpt>
            <trkpt lon="101.182052" lat="14.702809">
                <ele>217.400024</ele>
                <time>2017-02-04T04:56:45Z</time>
            </trkpt>
            <trkpt lon="101.180721" lat="14.701071">
                <ele>227.400024</ele>
                <time>2017-02-04T04:58:19Z</time>
            </trkpt>
            <trkpt lon="101.179895" lat="14.700925">
                <ele>236.200012</ele>
                <time>2017-02-04T04:59:35Z</time>
            </trkpt>
            <trkpt lon="101.178410" lat="14.700952">
                <ele>229.400024</ele>
                <time>2017-02-04T05:00:16Z</time>
            </trkpt>
            <trkpt lon="101.177874" lat="14.700503">
                <ele>233.000000</ele>
                <time>2017-02-04T05:00:39Z</time>
            </trkpt>
            <trkpt lon="101.177803" lat="14.700345">
                <ele>233.799988</ele>
                <time>2017-02-04T05:00:48Z</time>
            </trkpt>
            <trkpt lon="101.177297" lat="14.700303">
                <ele>236.000000</ele>
                <time>2017-02-04T05:03:48Z</time>
            </trkpt>
            <trkpt lon="101.177218" lat="14.700302">
                <ele>236.200012</ele>
                <time>2017-02-04T05:03:54Z</time>
            </trkpt>
            <trkpt lon="101.175378" lat="14.700211">
                <ele>238.599976</ele>
                <time>2017-02-04T05:05:03Z</time>
            </trkpt>
            <trkpt lon="101.176207" lat="14.696581">
                <ele>251.000000</ele>
                <time>2017-02-04T05:10:55Z</time>
            </trkpt>
            <trkpt lon="101.176280" lat="14.695308">
                <ele>242.799988</ele>
                <time>2017-02-04T05:11:37Z</time>
            </trkpt>
            <trkpt lon="101.176684" lat="14.694993">
                <ele>242.400024</ele>
                <time>2017-02-04T05:11:49Z</time>
            </trkpt>
            <trkpt lon="101.176080" lat="14.694504">
                <ele>235.000000</ele>
                <time>2017-02-04T05:12:04Z</time>
            </trkpt>
            <trkpt lon="101.171982" lat="14.698207">
                <ele>246.799988</ele>
                <time>2017-02-04T05:17:20Z</time>
            </trkpt>
            <trkpt lon="101.171491" lat="14.697674">
                <ele>246.200012</ele>
                <time>2017-02-04T05:17:35Z</time>
            </trkpt>
            <trkpt lon="101.171209" lat="14.697057">
                <ele>245.799988</ele>
                <time>2017-02-04T05:17:50Z</time>
            </trkpt>
            <trkpt lon="101.170889" lat="14.696575">
                <ele>242.200012</ele>
                <time>2017-02-04T05:18:00Z</time>
            </trkpt>
            <trkpt lon="101.170654" lat="14.696104">
                <ele>239.200012</ele>
                <time>2017-02-04T05:18:08Z</time>
            </trkpt>
            <trkpt lon="101.167288" lat="14.696294">
                <ele>251.400024</ele>
                <time>2017-02-04T05:20:44Z</time>
            </trkpt>
            <trkpt lon="101.167143" lat="14.696268">
                <ele>251.599976</ele>
                <time>2017-02-04T05:20:51Z</time>
            </trkpt>
            <trkpt lon="101.166196" lat="14.696378">
                <ele>249.000000</ele>
                <time>2017-02-04T05:21:18Z</time>
            </trkpt>
            <trkpt lon="101.166079" lat="14.696637">
                <ele>247.599976</ele>
                <time>2017-02-04T05:21:23Z</time>
            </trkpt>
            <trkpt lon="101.165600" lat="14.697340">
                <ele>243.799988</ele>
                <time>2017-02-04T05:21:37Z</time>
            </trkpt>
            <trkpt lon="101.165179" lat="14.697537">
                <ele>239.400024</ele>
                <time>2017-02-04T05:21:46Z</time>
            </trkpt>
            <trkpt lon="101.164758" lat="14.697463">
                <ele>238.599976</ele>
                <time>2017-02-04T05:22:00Z</time>
            </trkpt>
            <trkpt lon="101.164492" lat="14.696728">
                <ele>237.799988</ele>
                <time>2017-02-04T05:22:20Z</time>
            </trkpt>
            <trkpt lon="101.164333" lat="14.696284">
                <ele>234.599976</ele>
                <time>2017-02-04T05:22:33Z</time>
            </trkpt>
            <trkpt lon="101.164539" lat="14.697154">
                <ele>236.400024</ele>
                <time>2017-02-04T05:23:25Z</time>
            </trkpt>
            <trkpt lon="101.165159" lat="14.697528">
                <ele>240.400024</ele>
                <time>2017-02-04T05:23:53Z</time>
            </trkpt>
            <trkpt lon="101.165113" lat="14.698000">
                <ele>240.599976</ele>
                <time>2017-02-04T05:24:08Z</time>
            </trkpt>
            <trkpt lon="101.165475" lat="14.698590">
                <ele>245.799988</ele>
                <time>2017-02-04T05:24:40Z</time>
            </trkpt>
            <trkpt lon="101.166282" lat="14.699107">
                <ele>248.000000</ele>
                <time>2017-02-04T05:25:16Z</time>
            </trkpt>
            <trkpt lon="101.166903" lat="14.700166">
                <ele>251.000000</ele>
                <time>2017-02-04T05:26:00Z</time>
            </trkpt>
            <trkpt lon="101.167155" lat="14.700488">
                <ele>251.799988</ele>
                <time>2017-02-04T05:26:14Z</time>
            </trkpt>
            <trkpt lon="101.167540" lat="14.700994">
                <ele>249.599976</ele>
                <time>2017-02-04T05:26:28Z</time>
            </trkpt>
            <trkpt lon="101.168293" lat="14.702060">
                <ele>243.799988</ele>
                <time>2017-02-04T05:26:51Z</time>
            </trkpt>
            <trkpt lon="101.167014" lat="14.705209">
                <ele>243.200012</ele>
                <time>2017-02-04T05:29:39Z</time>
            </trkpt>
            <trkpt lon="101.165368" lat="14.704794">
                <ele>249.200012</ele>
                <time>2017-02-04T05:30:41Z</time>
            </trkpt>
            <trkpt lon="101.163871" lat="14.703783">
                <ele>254.200012</ele>
                <time>2017-02-04T05:31:50Z</time>
            </trkpt>
            <trkpt lon="101.163339" lat="14.703395">
                <ele>259.000000</ele>
                <time>2017-02-04T05:32:18Z</time>
            </trkpt>
            <trkpt lon="101.161743" lat="14.702636">
                <ele>268.000000</ele>
                <time>2017-02-04T05:33:33Z</time>
            </trkpt>
            <trkpt lon="101.161512" lat="14.702535">
                <ele>267.200012</ele>
                <time>2017-02-04T05:33:43Z</time>
            </trkpt>
            <trkpt lon="101.161160" lat="14.702306">
                <ele>264.799988</ele>
                <time>2017-02-04T05:33:50Z</time>
            </trkpt>
            <trkpt lon="101.157914" lat="14.702335">
                <ele>280.599976</ele>
                <time>2017-02-04T05:36:17Z</time>
            </trkpt>
            <trkpt lon="101.157239" lat="14.704590">
                <ele>284.400024</ele>
                <time>2017-02-04T05:37:29Z</time>
            </trkpt>
            <trkpt lon="101.157791" lat="14.705097">
                <ele>288.400024</ele>
                <time>2017-02-04T05:38:18Z</time>
            </trkpt>
            <trkpt lon="101.157980" lat="14.705654">
                <ele>291.599976</ele>
                <time>2017-02-04T05:38:53Z</time>
            </trkpt>
            <trkpt lon="101.158040" lat="14.707535">
                <ele>298.000000</ele>
                <time>2017-02-04T05:42:10Z</time>
            </trkpt>
            <trkpt lon="101.158255" lat="14.709829">
                <ele>290.599976</ele>
                <time>2017-02-04T05:43:15Z</time>
            </trkpt>
            <trkpt lon="101.156855" lat="14.710479">
                <ele>299.799988</ele>
                <time>2017-02-04T05:44:27Z</time>
            </trkpt>
            <trkpt lon="101.156409" lat="14.711533">
                <ele>298.799988</ele>
                <time>2017-02-04T05:45:06Z</time>
            </trkpt>
            <trkpt lon="101.156842" lat="14.714379">
                <ele>309.200012</ele>
                <time>2017-02-04T05:47:41Z</time>
            </trkpt>
            <trkpt lon="101.156220" lat="14.714727">
                <ele>311.200012</ele>
                <time>2017-02-04T05:48:18Z</time>
            </trkpt>
            <trkpt lon="101.156753" lat="14.715878">
                <ele>318.000000</ele>
                <time>2017-02-04T05:49:40Z</time>
            </trkpt>
            <trkpt lon="101.156623" lat="14.718102">
                <ele>330.400024</ele>
                <time>2017-02-04T05:54:43Z</time>
            </trkpt>
            <trkpt lon="101.156508" lat="14.718189">
                <ele>331.000000</ele>
                <time>2017-02-04T05:54:51Z</time>
            </trkpt>
            <trkpt lon="101.157005" lat="14.718988">
                <ele>337.200012</ele>
                <time>2017-02-04T05:55:48Z</time>
            </trkpt>
            <trkpt lon="101.157762" lat="14.721885">
                <ele>363.799988</ele>
                <time>2017-02-04T06:01:25Z</time>
            </trkpt>
            <trkpt lon="101.157757" lat="14.722125">
                <ele>364.599976</ele>
                <time>2017-02-04T06:01:39Z</time>
            </trkpt>
            <trkpt lon="101.157979" lat="14.722468">
                <ele>369.000000</ele>
                <time>2017-02-04T06:02:04Z</time>
            </trkpt>
            <trkpt lon="101.158061" lat="14.722535">
                <ele>368.799988</ele>
                <time>2017-02-04T06:02:09Z</time>
            </trkpt>
            <trkpt lon="101.157931" lat="14.724888">
                <ele>361.400024</ele>
                <time>2017-02-04T06:02:49Z</time>
            </trkpt>
            <trkpt lon="101.157451" lat="14.725469">
                <ele>362.599976</ele>
                <time>2017-02-04T06:03:05Z</time>
            </trkpt>
            <trkpt lon="101.157193" lat="14.725592">
                <ele>362.599976</ele>
                <time>2017-02-04T06:03:13Z</time>
            </trkpt>
            <trkpt lon="101.157052" lat="14.727197">
                <ele>361.200012</ele>
                <time>2017-02-04T06:03:55Z</time>
            </trkpt>
        </trkseg>
    </trk>
</gpx>